sensor_id;sensor_type;location;lat;lon;timestamp;pressure;altitude;pressure_sealevel;temperature;humidity
54172;BME280;40076;52.354;4.970;2023-10-08T00:00:25;102334.81;;;19.67;100.00
54172;BME280;40076;52.354;4.970;2023-10-08T00:03:13;102324.97;;;19.66;100.00
54172;BME280;40076;52.354;4.970;2023-10-08T00:05:39;102319.84;;;19.64;100.00
54172;BME280;40076;52.354;4.970;2023-10-08T00:08:05;102320.97;;;19.63;100.00
54172;BME280;40076;52.354;4.970;2023-10-08T00:10:35;102323.25;;;19.61;100.00
54172;BME280;40076;52.354;4.970;2023-10-08T00:13:02;102310.00;;;19.63;100.00
54172;BME280;40076;52.354;4.970;2023-10-08T00:15:28;102310.47;;;19.65;100.00
54172;BME280;40076;52.354;4.970;2023-10-08T00:17:53;102317.09;;;19.64;100.00
54172;BME280;40076;52.354;4.970;2023-10-08T00:20:20;102309.66;;;19.65;100.00
54172;BME280;40076;52.354;4.970;2023-10-08T00:22:51;102311.94;;;19.63;100.00
54172;BME280;40076;52.354;4.970;2023-10-08T00:25:20;102315.03;;;19.61;100.00
54172;BME280;40076;52.354;4.970;2023-10-08T00:27:45;102295.03;;;19.61;100.00
54172;BME280;40076;52.354;4.970;2023-10-08T00:30:12;102282.13;;;19.61;100.00
54172;BME280;40076;52.354;4.970;2023-10-08T00:32:45;102279.38;;;19.61;100.00
54172;BME280;40076;52.354;4.970;2023-10-08T00:35:11;102280.53;;;19.60;100.00
54172;BME280;40076;52.354;4.970;2023-10-08T00:37:39;102269.56;;;19.60;100.00
54172;BME280;40076;52.354;4.970;2023-10-08T00:40:06;102264.88;;;19.61;100.00
54172;BME280;40076;52.354;4.970;2023-10-08T00:42:46;102264.88;;;19.61;100.00
54172;BME280;40076;52.354;4.970;2023-10-08T00:45:12;102269.56;;;19.60;100.00
54172;BME280;40076;52.354;4.970;2023-10-08T00:47:40;102262.50;;;19.59;100.00
54172;BME280;40076;52.354;4.970;2023-10-08T00:50:10;102269.13;;;19.58;100.00
54172;BME280;40076;52.354;4.970;2023-10-08T00:52:46;102274.25;;;19.60;100.00
54172;BME280;40076;52.354;4.970;2023-10-08T00:55:24;102273.47;;;19.59;100.00
54172;BME280;40076;52.354;4.970;2023-10-08T00:57:57;102284.75;;;19.58;100.00
54172;BME280;40076;52.354;4.970;2023-10-08T01:00:24;102283.16;;;19.57;100.00
54172;BME280;40076;52.354;4.970;2023-10-08T01:02:58;102276.88;;;19.56;100.00
54172;BME280;40076;52.354;4.970;2023-10-08T01:05:26;102278.03;;;19.55;100.00
54172;BME280;40076;52.354;4.970;2023-10-08T01:08:27;102288.19;;;19.55;100.00
54172;BME280;40076;52.354;4.970;2023-10-08T01:11:21;102290.50;;;19.53;100.00
54172;BME280;40076;52.354;4.970;2023-10-08T01:13:56;102295.97;;;19.53;100.00
54172;BME280;40076;52.354;4.970;2023-10-08T01:16:24;102301.47;;;19.53;100.00
54172;BME280;40076;52.354;4.970;2023-10-08T01:18:52;102319.84;;;19.52;100.00
54172;BME280;40076;52.354;4.970;2023-10-08T01:21:19;102340.97;;;19.52;100.00
54172;BME280;40076;52.354;4.970;2023-10-08T01:23:59;102321.78;;;19.52;100.00
54172;BME280;40076;52.354;4.970;2023-10-08T01:26:26;102322.59;;;19.52;100.00
54172;BME280;40076;52.354;4.970;2023-10-08T01:28:54;102327.72;;;19.54;100.00
54172;BME280;40076;52.354;4.970;2023-10-08T01:31:19;102340.97;;;19.52;100.00
54172;BME280;40076;52.354;4.970;2023-10-08T01:33:45;102340.19;;;19.51;100.00
54172;BME280;40076;52.354;4.970;2023-10-08T01:36:15;102350.34;;;19.51;100.00
54172;BME280;40076;52.354;4.970;2023-10-08T01:38:41;102348.41;;;19.51;100.00
54172;BME280;40076;52.354;4.970;2023-10-08T01:41:07;102358.56;;;19.51;100.00
54172;BME280;40076;52.354;4.970;2023-10-08T01:43:47;102355.03;;;19.50;100.00
54172;BME280;40076;52.354;4.970;2023-10-08T01:46:12;102369.06;;;19.49;100.00
54172;BME280;40076;52.354;4.970;2023-10-08T01:48:38;102370.88;;;19.45;100.00
54172;BME280;40076;52.354;4.970;2023-10-08T01:51:04;102368.34;;;19.40;100.00
54172;BME280;40076;52.354;4.970;2023-10-08T01:53:37;102371.88;;;19.40;100.00
54172;BME280;40076;52.354;4.970;2023-10-08T01:56:04;102377.69;;;19.39;100.00
54172;BME280;40076;52.354;4.970;2023-10-08T01:58:29;102374.53;;;19.37;100.00
54172;BME280;40076;52.354;4.970;2023-10-08T02:00:55;102365.84;;;19.35;100.00
54172;BME280;40076;52.354;4.970;2023-10-08T02:03:24;102337.63;;;19.34;100.00
54172;BME280;40076;52.354;4.970;2023-10-08T02:05:49;102367.44;;;19.36;100.00
54172;BME280;40076;52.354;4.970;2023-10-08T02:08:19;102367.78;;;19.34;100.00
54172;BME280;40076;52.354;4.970;2023-10-08T02:10:44;102374.38;;;19.33;100.00
54172;BME280;40076;52.354;4.970;2023-10-08T02:13:13;102362.16;;;19.31;100.00
54172;BME280;40076;52.354;4.970;2023-10-08T02:15:44;102362.84;;;19.27;100.00
54172;BME280;40076;52.354;4.970;2023-10-08T02:18:10;102358.97;;;19.28;100.00
54172;BME280;40076;52.354;4.970;2023-10-08T02:20:35;102373.81;;;19.27;100.00
54172;BME280;40076;52.354;4.970;2023-10-08T02:23:01;102370.63;;;19.25;100.00
54172;BME280;40076;52.354;4.970;2023-10-08T02:25:26;102354.50;;;19.24;100.00
54172;BME280;40076;52.354;4.970;2023-10-08T02:27:52;102340.00;;;19.23;100.00
54172;BME280;40076;52.354;4.970;2023-10-08T02:30:18;102326.66;;;19.22;100.00
54172;BME280;40076;52.354;4.970;2023-10-08T02:32:44;102354.06;;;19.22;100.00
54172;BME280;40076;52.354;4.970;2023-10-08T02:35:10;102365.38;;;19.20;100.00
54172;BME280;40076;52.354;4.970;2023-10-08T02:37:39;102389.22;;;19.20;100.00
54172;BME280;40076;52.354;4.970;2023-10-08T02:40:08;102391.03;;;19.16;100.00
54172;BME280;40076;52.354;4.970;2023-10-08T02:42:41;102372.22;;;19.14;100.00
54172;BME280;40076;52.354;4.970;2023-10-08T02:45:07;102364.66;;;19.11;100.00
54172;BME280;40076;52.354;4.970;2023-10-08T02:47:41;102371.34;;;19.02;100.00
54172;BME280;40076;52.354;4.970;2023-10-08T02:50:10;102377.63;;;18.90;100.00
54172;BME280;40076;52.354;4.970;2023-10-08T02:52:36;102379.63;;;18.81;100.00
54172;BME280;40076;52.354;4.970;2023-10-08T02:55:01;102369.22;;;18.74;100.00
54172;BME280;40076;52.354;4.970;2023-10-08T02:57:26;102396.03;;;18.69;100.00
54172;BME280;40076;52.354;4.970;2023-10-08T02:59:55;102401.69;;;18.64;100.00
54172;BME280;40076;52.354;4.970;2023-10-08T03:02:20;102397.56;;;18.58;100.00
54172;BME280;40076;52.354;4.970;2023-10-08T03:04:51;102393.88;;;18.54;100.00
54172;BME280;40076;52.354;4.970;2023-10-08T03:07:18;102376.03;;;18.47;100.00
54172;BME280;40076;52.354;4.970;2023-10-08T03:10:00;102377.72;;;18.40;100.00
54172;BME280;40076;52.354;4.970;2023-10-08T03:12:29;102387.13;;;18.30;100.00
54172;BME280;40076;52.354;4.970;2023-10-08T03:14:59;102389.25;;;18.25;100.00
54172;BME280;40076;52.354;4.970;2023-10-08T03:17:37;102415.53;;;18.17;100.00
54172;BME280;40076;52.354;4.970;2023-10-08T03:20:14;102441.16;;;18.12;100.00
54172;BME280;40076;52.354;4.970;2023-10-08T03:23:03;102433.47;;;18.06;100.00
54172;BME280;40076;52.354;4.970;2023-10-08T03:25:32;102432.53;;;18.02;100.00
54172;BME280;40076;52.354;4.970;2023-10-08T03:28:06;102411.16;;;17.95;100.00
54172;BME280;40076;52.354;4.970;2023-10-08T03:30:33;102419.91;;;17.89;100.00
54172;BME280;40076;52.354;4.970;2023-10-08T03:33:05;102431.97;;;17.88;100.00
54172;BME280;40076;52.354;4.970;2023-10-08T03:35:35;102432.63;;;17.85;100.00
54172;BME280;40076;52.354;4.970;2023-10-08T03:38:02;102447.28;;;17.80;100.00
54172;BME280;40076;52.354;4.970;2023-10-08T03:40:47;102438.94;;;17.77;100.00
54172;BME280;40076;52.354;4.970;2023-10-08T03:43:14;102437.66;;;17.74;100.00
54172;BME280;40076;52.354;4.970;2023-10-08T03:45:49;102438.31;;;17.71;100.00
54172;BME280;40076;52.354;4.970;2023-10-08T03:48:24;102478.84;;;17.69;100.00
54172;BME280;40076;52.354;4.970;2023-10-08T03:50:50;102497.03;;;17.65;100.00
54172;BME280;40076;52.354;4.970;2023-10-08T03:53:31;102494.44;;;17.60;100.00
54172;BME280;40076;52.354;4.970;2023-10-08T03:55:59;102493.34;;;17.52;100.00
54172;BME280;40076;52.354;4.970;2023-10-08T03:58:30;102484.97;;;17.49;100.00
54172;BME280;40076;52.354;4.970;2023-10-08T04:00:59;102483.22;;;17.44;100.00
54172;BME280;40076;52.354;4.970;2023-10-08T04:03:34;102481.13;;;17.41;100.00
54172;BME280;40076;52.354;4.970;2023-10-08T04:06:19;102480.19;;;17.37;100.00
54172;BME280;40076;52.354;4.970;2023-10-08T04:08:48;102476.66;;;17.36;100.00
54172;BME280;40076;52.354;4.970;2023-10-08T04:11:32;102471.38;;;17.31;100.00
54172;BME280;40076;52.354;4.970;2023-10-08T04:14:01;102474.44;;;17.30;100.00
54172;BME280;40076;52.354;4.970;2023-10-08T04:16:28;102464.94;;;17.27;100.00
54172;BME280;40076;52.354;4.970;2023-10-08T04:18:57;102448.06;;;17.25;100.00
54172;BME280;40076;52.354;4.970;2023-10-08T04:21:26;102443.25;;;17.22;100.00
54172;BME280;40076;52.354;4.970;2023-10-08T04:23:54;102429.94;;;17.21;100.00
54172;BME280;40076;52.354;4.970;2023-10-08T04:26:23;102435.38;;;17.21;100.00
54172;BME280;40076;52.354;4.970;2023-10-08T04:28:56;102455.31;;;17.21;100.00
54172;BME280;40076;52.354;4.970;2023-10-08T04:31:30;102467.69;;;17.19;100.00
54172;BME280;40076;52.354;4.970;2023-10-08T04:34:03;102479.28;;;17.16;100.00
54172;BME280;40076;52.354;4.970;2023-10-08T04:36:36;102478.47;;;17.15;100.00
54172;BME280;40076;52.354;4.970;2023-10-08T04:39:04;102494.38;;;17.13;100.00
54172;BME280;40076;52.354;4.970;2023-10-08T04:41:41;102496.94;;;17.10;100.00
54172;BME280;40076;52.354;4.970;2023-10-08T04:44:11;102505.94;;;17.10;100.00
54172;BME280;40076;52.354;4.970;2023-10-08T04:46:41;102505.59;;;17.12;100.00
54172;BME280;40076;52.354;4.970;2023-10-08T04:49:16;102499.19;;;17.08;100.00
54172;BME280;40076;52.354;4.970;2023-10-08T04:52:06;102502.88;;;17.03;100.00
54172;BME280;40076;52.354;4.970;2023-10-08T04:54:40;102499.50;;;16.97;100.00
54172;BME280;40076;52.354;4.970;2023-10-08T04:57:07;102499.69;;;16.92;100.00
54172;BME280;40076;52.354;4.970;2023-10-08T04:59:42;102505.47;;;16.91;100.00
54172;BME280;40076;52.354;4.970;2023-10-08T05:02:09;102508.38;;;16.86;100.00
54172;BME280;40076;52.354;4.970;2023-10-08T05:04:57;102513.81;;;16.86;100.00
54172;BME280;40076;52.354;4.970;2023-10-08T05:07:43;102522.31;;;16.84;100.00
54172;BME280;40076;52.354;4.970;2023-10-08T05:10:12;102529.03;;;16.78;100.00
54172;BME280;40076;52.354;4.970;2023-10-08T05:12:43;102517.97;;;16.75;100.00
54172;BME280;40076;52.354;4.970;2023-10-08T05:15:41;102522.94;;;16.73;100.00
54172;BME280;40076;52.354;4.970;2023-10-08T05:18:15;102521.69;;;16.70;100.00
54172;BME280;40076;52.354;4.970;2023-10-08T05:20:43;102522.94;;;16.64;100.00
54172;BME280;40076;52.354;4.970;2023-10-08T05:23:16;102512.34;;;16.63;100.00
54172;BME280;40076;52.354;4.970;2023-10-08T05:25:57;102514.88;;;16.59;100.00
54172;BME280;40076;52.354;4.970;2023-10-08T05:28:32;102522.41;;;16.53;100.00
54172;BME280;40076;52.354;4.970;2023-10-08T05:31:08;102538.59;;;16.50;100.00
54172;BME280;40076;52.354;4.970;2023-10-08T05:33:47;102570.38;;;16.46;100.00
54172;BME280;40076;52.354;4.970;2023-10-08T05:36:14;102554.00;;;16.46;100.00
54172;BME280;40076;52.354;4.970;2023-10-08T05:39:00;102551.41;;;16.41;100.00
54172;BME280;40076;52.354;4.970;2023-10-08T05:41:29;102543.56;;;16.39;100.00
54172;BME280;40076;52.354;4.970;2023-10-08T05:44:05;102526.22;;;16.35;100.00
54172;BME280;40076;52.354;4.970;2023-10-08T05:46:48;102530.34;;;16.33;100.00
54172;BME280;40076;52.354;4.970;2023-10-08T05:49:19;102535.03;;;16.32;100.00
54172;BME280;40076;52.354;4.970;2023-10-08T05:51:57;102545.16;;;16.32;100.00
54172;BME280;40076;52.354;4.970;2023-10-08T05:54:28;102551.53;;;16.27;100.00
54172;BME280;40076;52.354;4.970;2023-10-08T05:56:57;102551.53;;;16.27;100.00
54172;BME280;40076;52.354;4.970;2023-10-08T05:59:38;102555.72;;;16.25;100.00
54172;BME280;40076;52.354;4.970;2023-10-08T06:02:17;102553.59;;;16.21;100.00
54172;BME280;40076;52.354;4.970;2023-10-08T06:05:11;102573.31;;;16.18;100.00
54172;BME280;40076;52.354;4.970;2023-10-08T06:10:28;102562.56;;;16.13;100.00
54172;BME280;40076;52.354;4.970;2023-10-08T06:13:04;102566.22;;;16.09;100.00
54172;BME280;40076;52.354;4.970;2023-10-08T06:15:43;102575.03;;;16.06;100.00
54172;BME280;40076;52.354;4.970;2023-10-08T06:18:25;102567.66;;;16.06;100.00
54172;BME280;40076;52.354;4.970;2023-10-08T06:20:54;102567.78;;;16.01;100.00
54172;BME280;40076;52.354;4.970;2023-10-08T06:23:21;102557.50;;;15.98;100.00
54172;BME280;40076;52.354;4.970;2023-10-08T06:25:49;102571.63;;;16.00;100.00
54172;BME280;40076;52.354;4.970;2023-10-08T06:28:50;102583.66;;;15.99;100.00
54172;BME280;40076;52.354;4.970;2023-10-08T06:31:22;102595.88;;;16.02;100.00
54172;BME280;40076;52.354;4.970;2023-10-08T06:33:50;102590.41;;;16.02;100.00
54172;BME280;40076;52.354;4.970;2023-10-08T06:36:16;102586.56;;;16.03;100.00
54172;BME280;40076;52.354;4.970;2023-10-08T06:38:46;102589.63;;;16.01;100.00
54172;BME280;40076;52.354;4.970;2023-10-08T06:41:15;102591.84;;;15.99;100.00
54172;BME280;40076;52.354;4.970;2023-10-08T06:43:44;102586.88;;;16.01;100.00
54172;BME280;40076;52.354;4.970;2023-10-08T06:46:15;102592.34;;;16.01;100.00
54172;BME280;40076;52.354;4.970;2023-10-08T06:48:44;102599.38;;;16.02;100.00
54172;BME280;40076;52.354;4.970;2023-10-08T06:51:11;102597.44;;;16.03;100.00
54172;BME280;40076;52.354;4.970;2023-10-08T06:53:43;102603.72;;;16.03;100.00
54172;BME280;40076;52.354;4.970;2023-10-08T06:56:16;102596.66;;;16.02;100.00
54172;BME280;40076;52.354;4.970;2023-10-08T06:58:43;102607.88;;;16.01;100.00
54172;BME280;40076;52.354;4.970;2023-10-08T07:01:20;102609.50;;;16.02;100.00
54172;BME280;40076;52.354;4.970;2023-10-08T07:03:50;102614.63;;;16.03;100.00
54172;BME280;40076;52.354;4.970;2023-10-08T07:06:16;102615.44;;;16.04;100.00
54172;BME280;40076;52.354;4.970;2023-10-08T07:08:52;102614.00;;;16.06;100.00
54172;BME280;40076;52.354;4.970;2023-10-08T07:11:21;102608.69;;;16.01;100.00
54172;BME280;40076;52.354;4.970;2023-10-08T07:13:54;102606.28;;;16.00;100.00
54172;BME280;40076;52.354;4.970;2023-10-08T07:16:27;102602.44;;;16.01;100.00
54172;BME280;40076;52.354;4.970;2023-10-08T07:18:53;102609.81;;;16.00;100.00
54172;BME280;40076;52.354;4.970;2023-10-08T07:21:29;102608.69;;;16.01;100.00
54172;BME280;40076;52.354;4.970;2023-10-08T07:23:57;102601.31;;;16.02;100.00
54172;BME280;40076;52.354;4.970;2023-10-08T07:26:30;102615.75;;;16.02;100.00
54172;BME280;40076;52.354;4.970;2023-10-08T07:29:06;102618.81;;;16.01;100.00
54172;BME280;40076;52.354;4.970;2023-10-08T07:31:36;102632.09;;;16.02;100.00
54172;BME280;40076;52.354;4.970;2023-10-08T07:34:06;102627.78;;;16.01;100.00
54172;BME280;40076;52.354;4.970;2023-10-08T07:36:48;102641.09;;;16.03;100.00
54172;BME280;40076;52.354;4.970;2023-10-08T07:39:24;102653.13;;;16.02;100.00
54172;BME280;40076;52.354;4.970;2023-10-08T07:42:03;102645.25;;;16.00;100.00
54172;BME280;40076;52.354;4.970;2023-10-08T07:44:33;102640.41;;;15.97;100.00
54172;BME280;40076;52.354;4.970;2023-10-08T07:47:01;102644.88;;;15.93;100.00
54172;BME280;40076;52.354;4.970;2023-10-08T07:49:27;102651.16;;;15.94;100.00
54172;BME280;40076;52.354;4.970;2023-10-08T07:52:02;102655.47;;;15.95;100.00
54172;BME280;40076;52.354;4.970;2023-10-08T07:54:31;102651.97;;;15.94;100.00
54172;BME280;40076;52.354;4.970;2023-10-08T07:57:00;102659.00;;;15.95;100.00
54172;BME280;40076;52.354;4.970;2023-10-08T07:59:36;102646.97;;;15.96;100.00
54172;BME280;40076;52.354;4.970;2023-10-08T08:02:07;102648.59;;;15.97;100.00
54172;BME280;40076;52.354;4.970;2023-10-08T08:04:39;102637.69;;;15.97;100.00
54172;BME280;40076;52.354;4.970;2023-10-08T08:07:12;102647.97;;;16.00;100.00
54172;BME280;40076;52.354;4.970;2023-10-08T08:09:45;102651.19;;;16.02;100.00
54172;BME280;40076;52.354;4.970;2023-10-08T08:12:25;102666.44;;;16.03;100.00
54172;BME280;40076;52.354;4.970;2023-10-08T08:15:06;102677.66;;;16.02;100.00
54172;BME280;40076;52.354;4.970;2023-10-08T08:17:44;102691.59;;;16.00;100.00
54172;BME280;40076;52.354;4.970;2023-10-08T08:20:10;102701.72;;;16.00;100.00
54172;BME280;40076;52.354;4.970;2023-10-08T08:22:46;102689.69;;;16.01;100.00
54172;BME280;40076;52.354;4.970;2023-10-08T08:25:20;102695.94;;;16.01;100.00
54172;BME280;40076;52.354;4.970;2023-10-08T08:28:08;102693.69;;;16.03;100.00
54172;BME280;40076;52.354;4.970;2023-10-08T08:33:40;102688.94;;;16.09;100.00
54172;BME280;40076;52.354;4.970;2023-10-08T08:36:38;102688.31;;;16.12;100.00
54172;BME280;40076;52.354;4.970;2023-10-08T08:39:06;102690.88;;;16.08;100.00
54172;BME280;40076;52.354;4.970;2023-10-08T08:41:37;102690.88;;;16.08;100.00
54172;BME280;40076;52.354;4.970;2023-10-08T08:44:07;102688.13;;;16.08;100.00
54172;BME280;40076;52.354;4.970;2023-10-08T08:46:43;102690.66;;;16.05;100.00
54172;BME280;40076;52.354;4.970;2023-10-08T08:49:13;102701.72;;;16.00;100.00
54172;BME280;40076;52.354;4.970;2023-10-08T08:52:38;102687.72;;;15.93;100.00
54172;BME280;40076;52.354;4.970;2023-10-08T08:55:12;102677.59;;;15.93;100.00
54172;BME280;40076;52.354;4.970;2023-10-08T08:57:42;102680.19;;;15.98;100.00
54172;BME280;40076;52.354;4.970;2023-10-08T09:00:11;102678.44;;;16.02;100.00
54172;BME280;40076;52.354;4.970;2023-10-08T09:02:38;102677.34;;;16.03;100.00
54172;BME280;40076;52.354;4.970;2023-10-08T09:05:04;102679.63;;;16.10;100.00
54172;BME280;40076;52.354;4.970;2023-10-08T09:08:01;102680.94;;;16.12;100.00
54172;BME280;40076;52.354;4.970;2023-10-08T09:10:31;102679.22;;;16.16;100.00
54172;BME280;40076;52.354;4.970;2023-10-08T09:13:03;102686.44;;;16.21;100.00
54172;BME280;40076;52.354;4.970;2023-10-08T09:15:29;102683.91;;;16.25;100.00
54172;BME280;40076;52.354;4.970;2023-10-08T09:17:55;102698.22;;;16.30;100.00
54172;BME280;40076;52.354;4.970;2023-10-08T09:20:22;102702.56;;;16.31;100.00
54172;BME280;40076;52.354;4.970;2023-10-08T09:23:10;102696.47;;;16.34;100.00
54172;BME280;40076;52.354;4.970;2023-10-08T09:25:43;102696.47;;;16.34;100.00
54172;BME280;40076;52.354;4.970;2023-10-08T09:28:09;102680.72;;;16.31;100.00
54172;BME280;40076;52.354;4.970;2023-10-08T09:30:38;102700.63;;;16.32;100.00
54172;BME280;40076;52.354;4.970;2023-10-08T09:33:09;102696.00;;;16.32;100.00
54172;BME280;40076;52.354;4.970;2023-10-08T09:35:34;102704.94;;;16.33;100.00
54172;BME280;40076;52.354;4.970;2023-10-08T09:38:06;102699.13;;;16.26;100.00
54172;BME280;40076;52.354;4.970;2023-10-08T09:40:38;102708.47;;;16.25;100.00
54172;BME280;40076;52.354;4.970;2023-10-08T09:43:04;102695.00;;;16.28;100.00
54172;BME280;40076;52.354;4.970;2023-10-08T09:45:30;102698.66;;;16.24;100.00
54172;BME280;40076;52.354;4.970;2023-10-08T09:47:56;102691.59;;;16.23;100.00
54172;BME280;40076;52.354;4.970;2023-10-08T09:50:29;102694.31;;;16.23;100.00
54172;BME280;40076;52.354;4.970;2023-10-08T09:53:12;102693.22;;;16.24;100.00
54172;BME280;40076;52.354;4.970;2023-10-08T09:55:55;102689.69;;;16.23;100.00
54172;BME280;40076;52.354;4.970;2023-10-08T09:58:29;102687.31;;;16.30;100.00
54172;BME280;40076;52.354;4.970;2023-10-08T10:00:57;102687.59;;;16.29;100.00
54172;BME280;40076;52.354;4.970;2023-10-08T10:03:25;102688.41;;;16.29;100.00
54172;BME280;40076;52.354;4.970;2023-10-08T10:05:52;102689.09;;;16.35;100.00
54172;BME280;40076;52.354;4.970;2023-10-08T10:08:23;102687.47;;;16.34;100.00
54172;BME280;40076;52.354;4.970;2023-10-08T10:10:58;102698.06;;;16.35;100.00
54172;BME280;40076;52.354;4.970;2023-10-08T10:13:27;102684.13;;;16.37;100.00
54172;BME280;40076;52.354;4.970;2023-10-08T10:15:53;102694.91;;;16.42;100.00
54172;BME280;40076;52.354;4.970;2023-10-08T10:23:44;102709.03;;;16.44;100.00
54172;BME280;40076;52.354;4.970;2023-10-08T10:26:26;102708.84;;;16.40;100.00
54172;BME280;40076;52.354;4.970;2023-10-08T10:31:48;102695.69;;;16.42;100.00
54172;BME280;40076;52.354;4.970;2023-10-08T10:34:20;102697.81;;;16.45;100.00
54172;BME280;40076;52.354;4.970;2023-10-08T10:36:48;102685.78;;;16.46;100.00
54172;BME280;40076;52.354;4.970;2023-10-08T10:39:18;102689.50;;;16.50;100.00
54172;BME280;40076;52.354;4.970;2023-10-08T10:41:55;102685.34;;;16.53;100.00
54172;BME280;40076;52.354;4.970;2023-10-08T10:44:27;102685.03;;;16.54;100.00
54172;BME280;40076;52.354;4.970;2023-10-08T10:46:54;102683.56;;;16.57;100.00
54172;BME280;40076;52.354;4.970;2023-10-08T10:49:39;102682.34;;;16.63;100.00
54172;BME280;40076;52.354;4.970;2023-10-08T10:52:22;102681.72;;;16.66;100.00
54172;BME280;40076;52.354;4.970;2023-10-08T10:55:02;102672.91;;;16.69;100.00
54172;BME280;40076;52.354;4.970;2023-10-08T11:00:36;102685.31;;;16.75;100.00
54172;BME280;40076;52.354;4.970;2023-10-08T11:03:03;102689.63;;;16.76;100.00
54172;BME280;40076;52.354;4.970;2023-10-08T11:05:33;102684.66;;;16.78;100.00
54172;BME280;40076;52.354;4.970;2023-10-08T11:08:02;102685.00;;;16.77;100.00
54172;BME280;40076;52.354;4.970;2023-10-08T11:10:34;102677.25;;;16.79;100.00
54172;BME280;40076;52.354;4.970;2023-10-08T11:13:04;102674.69;;;16.74;100.00
54172;BME280;40076;52.354;4.970;2023-10-08T11:15:33;102679.84;;;16.75;100.00
54172;BME280;40076;52.354;4.970;2023-10-08T11:18:30;102676.47;;;16.78;100.00
54172;BME280;40076;52.354;4.970;2023-10-08T11:21:17;102676.66;;;16.82;100.00
54172;BME280;40076;52.354;4.970;2023-10-08T11:24:13;102684.66;;;16.78;100.00
54172;BME280;40076;52.354;4.970;2023-10-08T11:26:53;102682.75;;;16.87;100.00
54172;BME280;40076;52.354;4.970;2023-10-08T11:29:47;102677.28;;;16.87;100.00
54172;BME280;40076;52.354;4.970;2023-10-08T11:32:26;102659.19;;;16.91;100.00
54172;BME280;40076;52.354;4.970;2023-10-08T11:35:06;102663.19;;;16.94;100.00
54172;BME280;40076;52.354;4.970;2023-10-08T11:37:52;102670.09;;;16.91;100.00
54172;BME280;40076;52.354;4.970;2023-10-08T11:40:26;102658.38;;;16.91;100.00
54172;BME280;40076;52.354;4.970;2023-10-08T11:46:21;102638.16;;;17.01;100.00
54172;BME280;40076;52.354;4.970;2023-10-08T11:48:49;102624.84;;;17.08;100.00
54172;BME280;40076;52.354;4.970;2023-10-08T12:12:07;102596.06;;;17.36;100.00
54172;BME280;40076;52.354;4.970;2023-10-08T12:21:44;102588.50;;;17.50;100.00
54172;BME280;40076;52.354;4.970;2023-10-08T12:27:33;102573.22;;;17.58;100.00
54172;BME280;40076;52.354;4.970;2023-10-08T12:43:42;102562.81;;;17.68;100.00
54172;BME280;40076;52.354;4.970;2023-10-08T12:46:51;102556.97;;;17.70;100.00
54172;BME280;40076;52.354;4.970;2023-10-08T12:52:58;102553.09;;;17.80;100.00
54172;BME280;40076;52.354;4.970;2023-10-08T12:59:52;102553.72;;;17.85;100.00
54172;BME280;40076;52.354;4.970;2023-10-08T13:09:19;102558.72;;;17.92;100.00
54172;BME280;40076;52.354;4.970;2023-10-08T13:12:18;102558.84;;;17.95;100.00
54172;BME280;40076;52.354;4.970;2023-10-08T13:18:54;102565.13;;;17.96;100.00
54172;BME280;40076;52.354;4.970;2023-10-08T13:28:17;102576.97;;;18.08;100.00
54172;BME280;40076;52.354;4.970;2023-10-08T13:31:28;102575.84;;;18.09;100.00
54172;BME280;40076;52.354;4.970;2023-10-08T13:51:53;102553.13;;;18.18;100.00
54172;BME280;40076;52.354;4.970;2023-10-08T13:54:52;102546.84;;;18.17;100.00
54172;BME280;40076;52.354;4.970;2023-10-08T14:00:13;102540.78;;;18.11;100.00
54172;BME280;40076;52.354;4.970;2023-10-08T14:06:32;102538.84;;;18.12;100.00
54172;BME280;40076;52.354;4.970;2023-10-08T14:09:43;102535.78;;;18.13;100.00
54172;BME280;40076;52.354;4.970;2023-10-08T14:12:49;102528.72;;;18.12;100.00
54172;BME280;40076;52.354;4.970;2023-10-08T14:15:57;102515.84;;;18.13;100.00
54172;BME280;40076;52.354;4.970;2023-10-08T14:18:56;102517.44;;;18.14;100.00
54172;BME280;40076;52.354;4.970;2023-10-08T14:21:50;102517.13;;;18.16;100.00
54172;BME280;40076;52.354;4.970;2023-10-08T14:24:51;102519.50;;;18.17;100.00
54172;BME280;40076;52.354;4.970;2023-10-08T14:28:06;102522.59;;;18.16;100.00
54172;BME280;40076;52.354;4.970;2023-10-08T14:31:12;102511.28;;;18.17;100.00
54172;BME280;40076;52.354;4.970;2023-10-08T14:34:12;102512.41;;;18.16;100.00
54172;BME280;40076;52.354;4.970;2023-10-08T14:43:48;102505.16;;;18.20;100.00
54172;BME280;40076;52.354;4.970;2023-10-08T14:46:55;102506.66;;;18.09;100.00
54172;BME280;40076;52.354;4.970;2023-10-08T15:00:10;102490.88;;;18.15;100.00
54172;BME280;40076;52.354;4.970;2023-10-08T15:03:34;102490.41;;;18.12;100.00
54172;BME280;40076;52.354;4.970;2023-10-08T15:10:26;102486.38;;;18.10;100.00
54172;BME280;40076;52.354;4.970;2023-10-08T15:20:53;102476.25;;;18.10;100.00
54172;BME280;40076;52.354;4.970;2023-10-08T15:30:38;102464.50;;;18.10;100.00
54172;BME280;40076;52.354;4.970;2023-10-08T15:33:41;102461.44;;;18.11;100.00
54172;BME280;40076;52.354;4.970;2023-10-08T15:46:55;102438.16;;;18.05;100.00
54172;BME280;40076;52.354;4.970;2023-10-08T15:50:22;102426.88;;;18.07;100.00
54172;BME280;40076;52.354;4.970;2023-10-08T16:10:55;102423.34;;;18.06;100.00
54172;BME280;40076;52.354;4.970;2023-10-08T16:31:52;102389.84;;;18.09;100.00
54172;BME280;40076;52.354;4.970;2023-10-08T16:46:17;102390.09;;;17.96;100.00
54172;BME280;40076;52.354;4.970;2023-10-08T17:35:12;102357.78;;;17.68;100.00